Time;durP1;ratioP1;P1;durP2;ratioP2;P2;SDS_P1;SDS_P2;PMS_P1;PMS_P2;Temp;Humidity;BMP_temperature;BMP_pressure;BME280_temperature;BME280_humidity;BME280_pressure;Samples;Min_cycle;Max_cycle;Signal;HPM_P1;HPM_P2
2023/08/24 00:01:16;;;;;;;;;;;24.10;99.90;;;;;;4976617;28;19906;-67
2023/08/24 00:03:43;;;;;;;;;;;24.10;99.90;;;;;;4984519;28;19909;-66
2023/08/24 00:06:10;;;;;;;;;;;24.00;99.90;;;;;;4993153;28;20379;-66
2023/08/24 00:08:35;;;;;;;;;;;24.00;99.90;;;;;;4974615;28;19948;-66
2023/08/24 00:11:01;;;;;;;;;;;24.00;99.90;;;;;;4983671;28;20352;-65
2023/08/24 00:13:27;;;;;;;;;;;24.00;99.90;;;;;;4973472;28;20308;-66
2023/08/24 00:15:53;;;;;;;;;;;24.00;99.90;;;;;;4985212;28;19913;-66
2023/08/24 00:18:21;;;;;;;;;;;24.00;99.90;;;;;;4986688;28;19916;-66
2023/08/24 00:20:47;;;;;;;;;;;24.00;99.90;;;;;;4989529;28;20474;-66
2023/08/24 00:23:13;;;;;;;;;;;24.00;99.90;;;;;;4989010;28;19916;-66
2023/08/24 00:25:40;;;;;;;;;;;24.00;99.90;;;;;;4991018;28;20324;-66
2023/08/24 00:28:06;;;;;;;;;;;23.90;99.90;;;;;;4989793;28;19959;-67
2023/08/24 00:30:32;;;;;;;;;;;23.90;99.90;;;;;;4972602;28;19944;-65
2023/08/24 00:32:57;;;;;;;;;;;23.90;99.90;;;;;;4985697;28;19992;-65
2023/08/24 00:35:23;;;;;;;;;;;23.80;99.90;;;;;;4971095;28;20532;-66
2023/08/24 00:37:50;;;;;;;;;;;23.80;99.90;;;;;;4985821;28;19920;-66
2023/08/24 00:40:16;;;;;;;;;;;23.80;99.90;;;;;;4987078;28;19916;-65
2023/08/24 00:42:46;;;;;;;;;;;23.70;99.90;;;;;;4990221;28;20613;-65
2023/08/24 00:45:12;;;;;;;;;;;23.70;99.90;;;;;;4969559;28;20367;-66
2023/08/24 00:47:42;;;;;;;;;;;23.70;99.90;;;;;;4989816;28;19928;-66
2023/08/24 00:50:08;;;;;;;;;;;23.70;99.90;;;;;;4969497;28;19912;-65
2023/08/24 00:52:34;;;;;;;;;;;23.60;99.90;;;;;;4983619;28;21277;-65
2023/08/24 00:54:59;;;;;;;;;;;23.60;99.90;;;;;;4981921;28;19909;-65
2023/08/24 00:57:26;;;;;;;;;;;23.50;99.90;;;;;;4988841;28;20388;-65
2023/08/24 00:59:52;;;;;;;;;;;23.50;99.90;;;;;;4963126;28;19917;-65
2023/08/24 01:02:18;;;;;;;;;;;23.40;99.90;;;;;;4990036;28;19914;-65
2023/08/24 01:04:46;;;;;;;;;;;23.40;99.90;;;;;;4984425;28;19909;-67
2023/08/24 01:07:12;;;;;;;;;;;23.40;99.90;;;;;;4980509;28;20345;-67
2023/08/24 01:09:39;;;;;;;;;;;23.40;99.90;;;;;;4980596;28;19989;-66
2023/08/24 01:12:07;;;;;;;;;;;23.30;99.90;;;;;;4988732;28;20039;-65
2023/08/24 01:14:50;;;;;;;;;;;23.30;99.90;;;;;;4983121;28;20399;-65
2023/08/24 01:17:18;;;;;;;;;;;23.30;99.90;;;;;;4991328;28;20723;-65
2023/08/24 01:19:44;;;;;;;;;;;23.30;99.90;;;;;;4991295;28;19910;-67
2023/08/24 01:22:28;;;;;;;;;;;23.40;99.90;;;;;;4992719;28;19909;-67
2023/08/24 01:25:00;;;;;;;;;;;23.40;99.90;;;;;;4981732;28;19949;-65
2023/08/24 01:27:26;;;;;;;;;;;23.40;99.90;;;;;;4983939;28;19909;-66
2023/08/24 01:29:56;;;;;;;;;;;23.50;99.90;;;;;;4973010;28;19909;-65
2023/08/24 01:32:21;;;;;;;;;;;23.50;99.90;;;;;;4986478;28;19930;-65
2023/08/24 01:34:47;;;;;;;;;;;23.50;99.90;;;;;;4985456;28;19914;-65
2023/08/24 01:37:13;;;;;;;;;;;23.60;99.90;;;;;;4972285;28;19914;-64
2023/08/24 01:39:43;;;;;;;;;;;23.60;99.90;;;;;;4988944;28;20442;-65
2023/08/24 01:42:10;;;;;;;;;;;23.60;99.90;;;;;;4974178;28;19909;-65
2023/08/24 01:44:38;;;;;;;;;;;23.60;99.90;;;;;;4985871;28;20394;-65
2023/08/24 01:47:05;;;;;;;;;;;23.60;99.90;;;;;;4991469;28;19914;-65
2023/08/24 01:49:31;;;;;;;;;;;23.60;99.90;;;;;;4984780;28;19909;-65
2023/08/24 01:51:57;;;;;;;;;;;23.60;99.90;;;;;;4991712;28;19913;-67
2023/08/24 01:54:23;;;;;;;;;;;23.60;99.90;;;;;;4984665;28;19953;-65
2023/08/24 01:56:48;;;;;;;;;;;23.60;99.90;;;;;;4990664;28;19948;-66
2023/08/24 01:59:14;;;;;;;;;;;23.60;99.90;;;;;;4983411;28;20416;-65
2023/08/24 02:01:39;;;;;;;;;;;23.60;99.90;;;;;;4990184;28;20269;-65
2023/08/24 02:04:05;;;;;;;;;;;23.60;99.90;;;;;;4990015;28;19913;-66
2023/08/24 02:06:31;;;;;;;;;;;23.60;99.90;;;;;;4987447;28;19951;-67
2023/08/24 02:08:56;;;;;;;;;;;23.60;99.90;;;;;;4980315;28;20365;-66
2023/08/24 02:11:22;;;;;;;;;;;23.50;99.90;;;;;;4987760;28;19928;-65
2023/08/24 02:13:48;;;;;;;;;;;23.50;99.90;;;;;;4985614;28;20706;-65
2023/08/24 02:16:13;;;;;;;;;;;23.40;99.90;;;;;;4981519;28;20330;-66
2023/08/24 02:18:39;;;;;;;;;;;23.40;99.90;;;;;;4993013;28;19929;-65
2023/08/24 02:21:08;;;;;;;;;;;23.40;99.90;;;;;;4991027;28;20294;-65
2023/08/24 02:23:34;;;;;;;;;;;23.40;99.90;;;;;;4986563;28;19913;-65
2023/08/24 02:25:59;;;;;;;;;;;23.30;99.90;;;;;;4989747;28;20252;-65
2023/08/24 02:28:25;;;;;;;;;;;23.30;99.90;;;;;;4984410;28;20005;-65
2023/08/24 02:30:50;;;;;;;;;;;23.30;99.90;;;;;;4985700;28;20339;-65
2023/08/24 02:33:16;;;;;;;;;;;23.30;99.90;;;;;;4984259;28;19913;-66
2023/08/24 02:35:43;;;;;;;;;;;23.30;99.90;;;;;;4986716;28;19957;-65
2023/08/24 02:38:09;;;;;;;;;;;23.20;99.90;;;;;;4988175;28;20323;-65
2023/08/24 02:40:34;;;;;;;;;;;23.20;99.90;;;;;;4978141;28;19917;-65
2023/08/24 02:43:00;;;;;;;;;;;23.20;99.90;;;;;;4980266;28;20283;-65
2023/08/24 02:45:25;;;;;;;;;;;23.10;99.90;;;;;;4988209;28;19909;-66
2023/08/24 02:47:51;;;;;;;;;;;23.00;99.90;;;;;;4988429;28;20381;-67
2023/08/24 02:50:17;;;;;;;;;;;22.90;99.90;;;;;;4985428;28;20605;-65
2023/08/24 02:52:42;;;;;;;;;;;22.80;99.90;;;;;;4990297;28;19929;-65
2023/08/24 02:55:08;;;;;;;;;;;22.70;99.90;;;;;;4984329;28;20087;-66
2023/08/24 02:57:34;;;;;;;;;;;22.70;99.90;;;;;;4980745;28;19924;-65
2023/08/24 02:59:59;;;;;;;;;;;22.60;99.90;;;;;;4984687;28;19943;-65
2023/08/24 03:02:25;;;;;;;;;;;22.70;99.90;;;;;;4984318;28;19948;-65
2023/08/24 03:04:50;;;;;;;;;;;22.60;99.90;;;;;;4967935;28;19910;-66
2023/08/24 03:07:16;;;;;;;;;;;22.60;99.90;;;;;;4987454;28;19914;-65
2023/08/24 03:09:41;;;;;;;;;;;22.60;99.90;;;;;;4985375;28;19909;-65
2023/08/24 03:12:07;;;;;;;;;;;22.60;99.90;;;;;;4985211;28;19940;-64
2023/08/24 03:14:33;;;;;;;;;;;22.50;99.90;;;;;;4966041;28;20467;-66
2023/08/24 03:16:58;;;;;;;;;;;22.50;99.90;;;;;;4977794;28;20016;-65
2023/08/24 03:19:24;;;;;;;;;;;22.50;99.90;;;;;;4989112;28;19963;-66
2023/08/24 03:21:49;;;;;;;;;;;22.50;99.90;;;;;;4970727;28;20014;-66
2023/08/24 03:24:15;;;;;;;;;;;22.50;99.90;;;;;;4984319;28;20353;-65
2023/08/24 03:26:40;;;;;;;;;;;22.50;99.90;;;;;;4986507;28;20337;-66
2023/08/24 03:29:06;;;;;;;;;;;22.50;99.90;;;;;;4987320;28;20001;-65
2023/08/24 03:31:32;;;;;;;;;;;22.40;99.90;;;;;;4973127;28;20475;-66
2023/08/24 03:33:57;;;;;;;;;;;22.40;99.90;;;;;;4984682;28;19976;-65
2023/08/24 03:36:23;;;;;;;;;;;22.40;99.90;;;;;;4988349;28;20383;-65
2023/08/24 03:38:48;;;;;;;;;;;22.30;99.90;;;;;;4980554;28;20291;-65
2023/08/24 03:41:14;;;;;;;;;;;22.30;99.90;;;;;;4981808;28;19909;-66
2023/08/24 03:43:39;;;;;;;;;;;22.20;99.90;;;;;;4988615;28;19972;-65
2023/08/24 03:46:05;;;;;;;;;;;22.20;99.90;;;;;;4989964;28;19910;-65
2023/08/24 03:48:31;;;;;;;;;;;22.10;99.90;;;;;;4963844;28;20002;-66
2023/08/24 03:50:57;;;;;;;;;;;22.10;99.90;;;;;;4983776;28;20004;-66
2023/08/24 03:53:24;;;;;;;;;;;22.10;99.90;;;;;;4988431;28;19924;-65
2023/08/24 03:55:50;;;;;;;;;;;22.00;99.90;;;;;;4982313;28;19916;-65
2023/08/24 03:58:15;;;;;;;;;;;22.10;99.90;;;;;;4980095;28;20375;-66
2023/08/24 04:00:41;;;;;;;;;;;22.10;99.90;;;;;;4964317;28;19906;-65
2023/08/24 04:03:07;;;;;;;;;;;22.10;99.90;;;;;;4988563;28;19933;-65
2023/08/24 04:05:33;;;;;;;;;;;22.00;99.90;;;;;;4982193;28;19992;-67
2023/08/24 04:08:02;;;;;;;;;;;22.00;99.90;;;;;;4987570;28;19972;-64
2023/08/24 04:10:31;;;;;;;;;;;22.00;99.90;;;;;;4987067;28;20384;-65
2023/08/24 04:12:56;;;;;;;;;;;22.00;99.90;;;;;;4985476;28;19917;-67
2023/08/24 04:15:22;;;;;;;;;;;22.00;99.90;;;;;;4990455;28;20380;-65
2023/08/24 04:17:48;;;;;;;;;;;22.00;99.90;;;;;;4989747;28;20040;-66
2023/08/24 04:20:13;;;;;;;;;;;22.00;99.90;;;;;;4974923;28;19905;-67
2023/08/24 04:22:39;;;;;;;;;;;22.10;99.90;;;;;;4987760;28;19917;-65
2023/08/24 04:25:05;;;;;;;;;;;22.10;99.90;;;;;;4993063;28;19906;-65
2023/08/24 04:27:32;;;;;;;;;;;22.20;99.90;;;;;;4989051;28;19928;-65
2023/08/24 04:29:58;;;;;;;;;;;22.10;99.90;;;;;;4986886;28;19975;-66
2023/08/24 04:32:23;;;;;;;;;;;22.20;99.90;;;;;;4991421;28;20373;-66
2023/08/24 04:34:49;;;;;;;;;;;22.10;99.90;;;;;;4969985;28;20008;-66
2023/08/24 04:37:14;;;;;;;;;;;22.10;99.90;;;;;;4989593;28;19918;-66
2023/08/24 04:39:40;;;;;;;;;;;22.20;99.90;;;;;;4989062;28;20012;-65
2023/08/24 04:42:06;;;;;;;;;;;22.40;99.90;;;;;;4979044;28;19921;-66
2023/08/24 04:44:32;;;;;;;;;;;22.50;99.90;;;;;;4990916;28;20538;-65
2023/08/24 04:46:57;;;;;;;;;;;22.60;99.90;;;;;;4987578;28;19937;-66
2023/08/24 04:49:23;;;;;;;;;;;22.80;99.90;;;;;;4981868;28;19921;-65
2023/08/24 04:51:48;;;;;;;;;;;22.80;99.90;;;;;;4987753;28;19913;-66
2023/08/24 04:54:14;;;;;;;;;;;23.00;99.90;;;;;;4990046;28;19913;-66
2023/08/24 04:56:39;;;;;;;;;;;23.00;99.90;;;;;;4976703;28;20312;-65
2023/08/24 04:59:05;;;;;;;;;;;23.10;99.90;;;;;;4982714;28;20377;-65
2023/08/24 05:01:31;;;;;;;;;;;23.30;99.90;;;;;;4985018;28;19905;-64
2023/08/24 05:03:57;;;;;;;;;;;23.40;99.90;;;;;;4990307;28;20107;-66
2023/08/24 05:06:22;;;;;;;;;;;23.40;99.90;;;;;;4969614;28;19927;-64
2023/08/24 05:08:48;;;;;;;;;;;23.40;99.90;;;;;;4980077;28;19914;-66
2023/08/24 05:11:20;;;;;;;;;;;23.40;99.90;;;;;;4982382;28;19996;-66
2023/08/24 05:13:46;;;;;;;;;;;23.40;99.90;;;;;;4990048;28;19912;-65
2023/08/24 05:16:12;;;;;;;;;;;23.40;99.90;;;;;;4990960;28;19913;-65
2023/08/24 05:18:37;;;;;;;;;;;23.60;99.90;;;;;;4984479;28;19913;-65
2023/08/24 05:21:03;;;;;;;;;;;23.70;99.90;;;;;;4970168;28;19913;-65
2023/08/24 05:23:29;;;;;;;;;;;23.90;99.90;;;;;;4984732;28;20271;-65
2023/08/24 05:25:56;;;;;;;;;;;24.00;99.90;;;;;;4968672;28;19916;-65
2023/08/24 05:28:22;;;;;;;;;;;24.30;99.90;;;;;;4981394;28;19952;-65
2023/08/24 05:30:47;;;;;;;;;;;24.60;99.90;;;;;;4984768;28;19952;-65
2023/08/24 05:33:13;;;;;;;;;;;24.90;99.90;;;;;;4981447;28;19905;-65
2023/08/24 05:35:38;;;;;;;;;;;25.10;99.90;;;;;;4987906;28;20128;-69
2023/08/24 05:38:04;;;;;;;;;;;25.60;99.90;;;;;;4992211;28;19917;-69
2023/08/24 05:40:29;;;;;;;;;;;26.00;99.90;;;;;;4981962;28;19905;-67
2023/08/24 05:42:55;;;;;;;;;;;26.20;99.90;;;;;;4988377;28;19909;-68
2023/08/24 05:45:21;;;;;;;;;;;26.60;99.90;;;;;;4988774;28;19909;-68
2023/08/24 05:47:46;;;;;;;;;;;26.70;99.90;;;;;;4984756;28;20540;-67
2023/08/24 05:50:12;;;;;;;;;;;27.20;99.90;;;;;;4987050;28;19912;-67
2023/08/24 05:52:37;;;;;;;;;;;27.40;99.90;;;;;;4984531;28;20000;-68
2023/08/24 05:55:03;;;;;;;;;;;27.80;99.90;;;;;;4986203;28;19913;-68
2023/08/24 05:57:28;;;;;;;;;;;27.90;99.90;;;;;;4990219;28;20364;-67
2023/08/24 05:59:54;;;;;;;;;;;28.10;99.90;;;;;;4985789;28;19910;-67
2023/08/24 06:02:20;;;;;;;;;;;27.90;99.90;;;;;;4990023;28;19909;-68
2023/08/24 06:04:46;;;;;;;;;;;28.00;99.90;;;;;;4988701;28;20324;-67
2023/08/24 06:07:11;;;;;;;;;;;28.50;99.90;;;;;;4988108;28;19979;-67
2023/08/24 06:09:37;;;;;;;;;;;29.20;99.90;;;;;;4986276;28;19909;-71
2023/08/24 06:12:02;;;;;;;;;;;29.90;99.90;;;;;;4975845;28;19924;-70
2023/08/24 06:14:28;;;;;;;;;;;29.50;99.90;;;;;;4994389;28;19916;-70
2023/08/24 06:16:53;;;;;;;;;;;29.00;99.90;;;;;;4989581;28;19909;-68
2023/08/24 06:19:19;;;;;;;;;;;30.00;99.90;;;;;;4994804;28;20036;-68
2023/08/24 06:21:44;;;;;;;;;;;30.20;99.90;;;;;;4972283;28;19930;-68
2023/08/24 06:24:10;;;;;;;;;;;30.70;99.50;;;;;;4968940;28;20365;-67
2023/08/24 06:26:35;;;;;;;;;;;29.80;99.40;;;;;;4992336;28;19909;-66
2023/08/24 06:29:01;;;;;;;;;;;29.50;99.90;;;;;;4987591;28;19906;-67
2023/08/24 06:31:26;;;;;;;;;;;30.10;99.50;;;;;;4988342;28;20436;-67
2023/08/24 06:33:52;;;;;;;;;;;31.10;98.60;;;;;;4978863;28;20003;-67
2023/08/24 06:36:18;;;;;;;;;;;31.90;97.20;;;;;;4968795;28;19992;-66
2023/08/24 06:38:43;;;;;;;;;;;32.20;96.60;;;;;;4990581;28;19909;-67
2023/08/24 06:41:12;;;;;;;;;;;31.90;95.80;;;;;;4975088;28;19931;-66
2023/08/24 06:43:38;;;;;;;;;;;31.90;95.90;;;;;;4968742;28;19910;-66
2023/08/24 06:46:07;;;;;;;;;;;32.00;95.80;;;;;;4991414;28;20239;-68
2023/08/24 06:48:37;;;;;;;;;;;31.90;95.30;;;;;;4977211;28;19909;-67
2023/08/24 06:51:03;;;;;;;;;;;31.90;95.50;;;;;;4985246;28;19912;-70
2023/08/24 06:53:28;;;;;;;;;;;32.00;94.90;;;;;;4973519;28;19905;-70
2023/08/24 06:55:55;;;;;;;;;;;31.40;95.70;;;;;;4986724;28;19906;-71
2023/08/24 06:58:21;;;;;;;;;;;31.40;95.20;;;;;;4984374;28;19960;-70
2023/08/24 07:00:46;;;;;;;;;;;31.90;94.50;;;;;;4986431;28;20568;-70
2023/08/24 07:03:12;;;;;;;;;;;31.90;94.50;;;;;;4992673;28;19917;-68
2023/08/24 07:05:38;;;;;;;;;;;33.50;93.20;;;;;;4990125;28;19909;-68
2023/08/24 07:08:04;;;;;;;;;;;33.10;92.40;;;;;;4984937;28;19920;-69
2023/08/24 07:10:29;;;;;;;;;;;33.90;92.20;;;;;;4970293;28;20331;-68
2023/08/24 07:12:55;;;;;;;;;;;34.70;91.30;;;;;;4990019;28;19907;-67
2023/08/24 07:15:20;;;;;;;;;;;34.20;90.50;;;;;;4981381;28;20251;-68
2023/08/24 07:17:46;;;;;;;;;;;33.30;91.00;;;;;;4986213;28;19925;-67
2023/08/24 07:20:13;;;;;;;;;;;32.50;91.60;;;;;;4970003;28;19987;-68
2023/08/24 07:22:39;;;;;;;;;;;32.20;92.40;;;;;;4989068;28;20361;-68
2023/08/24 07:25:05;;;;;;;;;;;32.90;92.00;;;;;;4989760;28;19913;-69
2023/08/24 07:27:34;;;;;;;;;;;32.20;92.10;;;;;;4973543;28;19948;-68
2023/08/24 07:30:00;;;;;;;;;;;32.50;91.80;;;;;;4986894;28;19955;-68
2023/08/24 07:32:26;;;;;;;;;;;33.30;91.00;;;;;;4986725;28;20368;-68
2023/08/24 07:34:52;;;;;;;;;;;33.90;91.00;;;;;;4966079;28;20502;-68
2023/08/24 07:37:18;;;;;;;;;;;34.40;89.10;;;;;;5006049;28;19921;-69
2023/08/24 07:39:43;;;;;;;;;;;34.20;90.10;;;;;;4993919;28;19960;-69
2023/08/24 07:42:09;;;;;;;;;;;36.10;86.50;;;;;;4988697;28;19979;-69
2023/08/24 07:44:35;;;;;;;;;;;35.90;85.40;;;;;;4989674;28;19921;-69
2023/08/24 07:47:01;;;;;;;;;;;36.00;85.00;;;;;;4995689;28;19909;-69
2023/08/24 07:49:27;;;;;;;;;;;36.60;82.70;;;;;;4989445;28;19906;-69
2023/08/24 07:51:52;;;;;;;;;;;35.30;81.70;;;;;;4995302;28;20272;-69
2023/08/24 07:54:18;;;;;;;;;;;35.70;81.80;;;;;;4980412;28;19919;-71
2023/08/24 07:56:44;;;;;;;;;;;36.80;80.70;;;;;;4989502;28;19905;-71
2023/08/24 07:59:09;;;;;;;;;;;35.00;81.00;;;;;;4989854;28;19910;-71
2023/08/24 08:01:35;;;;;;;;;;;34.40;82.20;;;;;;4990655;28;19925;-72
2023/08/24 08:04:00;;;;;;;;;;;36.40;80.20;;;;;;4993032;28;20257;-72
2023/08/24 08:06:26;;;;;;;;;;;36.90;79.20;;;;;;4991354;28;19905;-71
2023/08/24 08:08:52;;;;;;;;;;;39.20;76.00;;;;;;4990425;28;19912;-72
2023/08/24 08:11:18;;;;;;;;;;;39.30;74.50;;;;;;4989295;28;19940;-68
2023/08/24 08:13:43;;;;;;;;;;;40.50;73.90;;;;;;4998124;28;19984;-67
2023/08/24 08:16:09;;;;;;;;;;;39.10;71.30;;;;;;4979855;28;19909;-67
2023/08/24 08:18:35;;;;;;;;;;;38.40;72.90;;;;;;4989553;28;19930;-67
2023/08/24 08:21:01;;;;;;;;;;;37.70;73.20;;;;;;4991970;28;19906;-67
2023/08/24 08:23:27;;;;;;;;;;;37.60;72.90;;;;;;4995191;28;19977;-67
2023/08/24 08:25:53;;;;;;;;;;;39.10;72.80;;;;;;4988462;28;20301;-66
2023/08/24 08:28:18;;;;;;;;;;;39.40;69.80;;;;;;4993148;28;20378;-67
2023/08/24 08:30:44;;;;;;;;;;;39.40;71.60;;;;;;4992305;28;19916;-67
2023/08/24 08:33:10;;;;;;;;;;;39.80;69.10;;;;;;4990501;28;19906;-67
2023/08/24 08:35:37;;;;;;;;;;;40.30;69.00;;;;;;4995501;28;19905;-67
2023/08/24 08:38:02;;;;;;;;;;;40.20;69.50;;;;;;4991824;28;19916;-67
2023/08/24 08:40:30;;;;;;;;;;;41.00;68.50;;;;;;4991608;28;20340;-67
2023/08/24 08:42:57;;;;;;;;;;;41.20;66.10;;;;;;4989206;28;20246;-67
2023/08/24 08:45:24;;;;;;;;;;;39.10;68.60;;;;;;4967360;28;20000;-67
2023/08/24 08:47:50;;;;;;;;;;;40.40;67.90;;;;;;4986557;28;20361;-67
2023/08/24 08:50:16;;;;;;;;;;;41.30;66.00;;;;;;4995163;28;19912;-67
2023/08/24 08:52:41;;;;;;;;;;;39.50;66.10;;;;;;4994307;28;19933;-67
2023/08/24 08:55:09;;;;;;;;;;;39.50;67.30;;;;;;4964987;28;19910;-67
2023/08/24 08:57:36;;;;;;;;;;;37.10;67.80;;;;;;4985137;28;19910;-66
2023/08/24 09:00:02;;;;;;;;;;;35.50;70.80;;;;;;4974269;28;20275;-67
2023/08/24 09:02:28;;;;;;;;;;;35.50;72.10;;;;;;4991391;28;19905;-67
2023/08/24 09:04:54;;;;;;;;;;;34.60;72.10;;;;;;4983102;28;20352;-67
2023/08/24 09:07:20;;;;;;;;;;;36.40;71.20;;;;;;4991165;28;19956;-67
2023/08/24 09:09:46;;;;;;;;;;;37.70;69.30;;;;;;4991674;28;19909;-67
2023/08/24 09:12:11;;;;;;;;;;;37.40;68.40;;;;;;4991315;28;20450;-67
2023/08/24 09:14:37;;;;;;;;;;;36.90;69.30;;;;;;4991134;28;19906;-67
2023/08/24 09:17:03;;;;;;;;;;;36.50;69.40;;;;;;4973501;28;20261;-67
2023/08/24 09:19:32;;;;;;;;;;;36.00;70.40;;;;;;4996489;28;19910;-67
2023/08/24 09:21:58;;;;;;;;;;;37.00;69.80;;;;;;4988782;28;19909;-67
2023/08/24 09:24:31;;;;;;;;;;;38.10;67.90;;;;;;4974086;28;19917;-67
2023/08/24 09:26:57;;;;;;;;;;;38.60;68.10;;;;;;4984366;28;19913;-67
2023/08/24 09:29:22;;;;;;;;;;;39.60;66.20;;;;;;4991111;28;20268;-67
2023/08/24 09:31:50;;;;;;;;;;;40.50;64.10;;;;;;4989317;28;19952;-68
2023/08/24 09:34:19;;;;;;;;;;;40.60;63.90;;;;;;4983642;28;19905;-67
2023/08/24 09:36:44;;;;;;;;;;;39.20;64.00;;;;;;4985716;28;20228;-66
2023/08/24 09:39:10;;;;;;;;;;;37.90;65.30;;;;;;4983761;28;20039;-67
2023/08/24 09:41:39;;;;;;;;;;;37.90;66.30;;;;;;4991391;28;20246;-67
2023/08/24 09:44:05;;;;;;;;;;;37.10;66.80;;;;;;4987605;28;19913;-67
2023/08/24 09:46:31;;;;;;;;;;;36.10;67.80;;;;;;4974840;28;20331;-67
2023/08/24 09:48:59;;;;;;;;;;;36.90;68.90;;;;;;4985888;28;19913;-67
2023/08/24 09:51:26;;;;;;;;;;;36.70;67.60;;;;;;4979797;28;19905;-67
2023/08/24 09:53:52;;;;;;;;;;;36.20;68.60;;;;;;4964053;28;20333;-67
2023/08/24 09:56:19;;;;;;;;;;;36.70;68.50;;;;;;4984406;28;20372;-67
2023/08/24 09:58:46;;;;;;;;;;;38.20;67.20;;;;;;4974666;28;20403;-67
2023/08/24 10:01:11;;;;;;;;;;;38.70;66.50;;;;;;4991484;28;19913;-66
2023/08/24 10:03:40;;;;;;;;;;;39.00;65.50;;;;;;4982889;28;20203;-66
2023/08/24 10:06:07;;;;;;;;;;;39.20;65.90;;;;;;4983893;28;20261;-69
2023/08/24 10:08:35;;;;;;;;;;;37.40;66.60;;;;;;4984522;28;19906;-67
2023/08/24 10:11:01;;;;;;;;;;;37.40;67.20;;;;;;4989575;28;19921;-67
2023/08/24 10:13:26;;;;;;;;;;;37.50;66.90;;;;;;4989124;28;19960;-67
2023/08/24 10:15:53;;;;;;;;;;;38.50;67.00;;;;;;4989177;28;19997;-67
2023/08/24 10:18:19;;;;;;;;;;;39.80;65.40;;;;;;4972156;28;20008;-67
2023/08/24 10:20:46;;;;;;;;;;;40.10;64.60;;;;;;4972653;28;19997;-67
2023/08/24 10:23:12;;;;;;;;;;;40.60;63.30;;;;;;4978008;28;19914;-66
2023/08/24 10:25:39;;;;;;;;;;;39.20;64.50;;;;;;4982416;28;19913;-67
2023/08/24 10:28:05;;;;;;;;;;;38.70;65.60;;;;;;4966602;28;19921;-67
2023/08/24 10:30:31;;;;;;;;;;;38.10;65.80;;;;;;4982583;28;19963;-67
2023/08/24 10:32:57;;;;;;;;;;;38.10;65.90;;;;;;4986740;28;19905;-67
2023/08/24 10:35:23;;;;;;;;;;;38.40;66.20;;;;;;4987135;28;19964;-67
2023/08/24 10:37:51;;;;;;;;;;;38.90;64.90;;;;;;4986090;28;19917;-67
2023/08/24 10:40:30;;;;;;;;;;;40.30;64.00;;;;;;4984127;28;19921;-67
2023/08/24 10:42:56;;;;;;;;;;;39.90;63.00;;;;;;4989462;28;20285;-70
2023/08/24 10:45:22;;;;;;;;;;;39.50;63.70;;;;;;4991330;28;19960;-69
2023/08/24 10:47:51;;;;;;;;;;;41.80;63.10;;;;;;4988565;28;20004;-74
2023/08/24 10:50:18;;;;;;;;;;;43.10;60.50;;;;;;4974453;28;21275;-71
2023/08/24 10:52:43;;;;;;;;;;;43.90;59.40;;;;;;4981655;28;19949;-71
2023/08/24 10:55:22;;;;;;;;;;;43.50;59.60;;;;;;4990230;28;20384;-71
2023/08/24 10:57:55;;;;;;;;;;;43.90;58.40;;;;;;4973919;28;20411;-71
2023/08/24 11:00:22;;;;;;;;;;;44.10;57.70;;;;;;4988860;28;19905;-71
2023/08/24 11:02:49;;;;;;;;;;;43.70;58.30;;;;;;4972070;28;19936;-70
2023/08/24 11:05:16;;;;;;;;;;;42.30;58.70;;;;;;5001248;28;20281;-69
2023/08/24 11:07:52;;;;;;;;;;;39.50;60.30;;;;;;4984601;28;20365;-70
2023/08/24 11:10:18;;;;;;;;;;;36.90;64.10;;;;;;4976360;28;20384;-69
2023/08/24 11:13:02;;;;;;;;;;;34.30;66.90;;;;;;4986108;28;19917;-70
2023/08/24 11:15:32;;;;;;;;;;;33.50;69.10;;;;;;4974229;28;19906;-70
2023/08/24 11:18:12;;;;;;;;;;;33.10;70.60;;;;;;4982730;28;19932;-70
2023/08/24 11:20:40;;;;;;;;;;;32.70;70.70;;;;;;4992845;28;19909;-72
2023/08/24 11:23:06;;;;;;;;;;;32.60;71.80;;;;;;4966882;28;19905;-70
2023/08/24 11:25:35;;;;;;;;;;;32.90;71.90;;;;;;4990097;28;19917;-70
2023/08/24 11:28:00;;;;;;;;;;;33.00;72.10;;;;;;4994183;28;19912;-70
2023/08/24 11:30:26;;;;;;;;;;;33.40;71.20;;;;;;4987798;28;19906;-70
2023/08/24 11:32:53;;;;;;;;;;;33.30;71.00;;;;;;4988328;28;20383;-70
2023/08/24 11:35:19;;;;;;;;;;;33.40;70.90;;;;;;4989762;28;19921;-70
2023/08/24 11:37:50;;;;;;;;;;;33.30;71.30;;;;;;4984878;28;19917;-70
2023/08/24 11:40:16;;;;;;;;;;;33.50;70.90;;;;;;4995740;28;20371;-68
2023/08/24 11:42:42;;;;;;;;;;;33.30;71.20;;;;;;4995278;28;19914;-70
2023/08/24 11:45:14;;;;;;;;;;;33.60;70.90;;;;;;4988728;28;19921;-72
2023/08/24 11:47:40;;;;;;;;;;;33.50;70.60;;;;;;4971717;28;19949;-72
2023/08/24 11:50:06;;;;;;;;;;;33.40;70.60;;;;;;4988191;28;19975;-72
2023/08/24 11:52:35;;;;;;;;;;;33.50;71.10;;;;;;4975224;28;19952;-71
2023/08/24 11:55:01;;;;;;;;;;;33.40;70.20;;;;;;4968087;28;19917;-72
2023/08/24 11:57:27;;;;;;;;;;;33.20;70.70;;;;;;4991590;28;20020;-72
2023/08/24 11:59:54;;;;;;;;;;;33.10;72.00;;;;;;4972411;28;19916;-71
2023/08/24 12:02:21;;;;;;;;;;;33.00;70.80;;;;;;4967912;28;19906;-71
2023/08/24 12:04:48;;;;;;;;;;;33.20;70.20;;;;;;4989636;28;20234;-71
2023/08/24 12:07:14;;;;;;;;;;;33.40;70.50;;;;;;4988724;28;20359;-72
2023/08/24 12:09:40;;;;;;;;;;;33.40;70.40;;;;;;4994688;28;19914;-71
2023/08/24 12:12:11;;;;;;;;;;;33.50;71.10;;;;;;4976375;28;20020;-72
2023/08/24 12:14:40;;;;;;;;;;;33.50;70.40;;;;;;4979365;28;20284;-71
2023/08/24 12:17:07;;;;;;;;;;;33.70;69.40;;;;;;4993722;28;19917;-72
2023/08/24 12:19:33;;;;;;;;;;;33.40;69.40;;;;;;4973278;28;19909;-71
2023/08/24 12:21:58;;;;;;;;;;;33.10;69.50;;;;;;4988861;28;20545;-72
2023/08/24 12:24:24;;;;;;;;;;;33.30;69.00;;;;;;4975247;28;20035;-72
2023/08/24 12:26:55;;;;;;;;;;;33.30;69.40;;;;;;4994561;28;20343;-71
2023/08/24 12:29:20;;;;;;;;;;;33.50;69.00;;;;;;4996781;28;20032;-72
2023/08/24 12:31:46;;;;;;;;;;;33.30;67.50;;;;;;4993534;28;19945;-72
2023/08/24 12:34:14;;;;;;;;;;;33.20;67.80;;;;;;4992709;28;20450;-71
2023/08/24 12:36:41;;;;;;;;;;;33.30;68.40;;;;;;4991820;28;19926;-71
2023/08/24 12:39:07;;;;;;;;;;;33.30;68.90;;;;;;4972461;28;19917;-71
2023/08/24 12:41:33;;;;;;;;;;;33.30;70.00;;;;;;4999008;28;20288;-71
2023/08/24 12:43:59;;;;;;;;;;;32.90;70.40;;;;;;4991455;28;19917;-72
2023/08/24 12:46:25;;;;;;;;;;;32.90;70.40;;;;;;4991153;28;19912;-71
2023/08/24 12:48:51;;;;;;;;;;;33.00;70.60;;;;;;4994681;28;19912;-71
2023/08/24 12:51:16;;;;;;;;;;;33.10;70.50;;;;;;4974960;28;19949;-71
2023/08/24 12:53:42;;;;;;;;;;;33.10;70.00;;;;;;4989662;28;19902;-72
2023/08/24 12:56:08;;;;;;;;;;;32.70;70.10;;;;;;4971634;28;20546;-72
2023/08/24 12:58:34;;;;;;;;;;;32.80;70.50;;;;;;4998468;28;19975;-71
2023/08/24 13:01:00;;;;;;;;;;;32.80;70.40;;;;;;4994438;28;19910;-71
2023/08/24 13:03:25;;;;;;;;;;;32.80;70.20;;;;;;4978140;28;19917;-72
2023/08/24 13:05:51;;;;;;;;;;;32.90;70.50;;;;;;4992956;28;19905;-72
2023/08/24 13:08:16;;;;;;;;;;;32.60;70.30;;;;;;4975031;28;20612;-73
2023/08/24 13:10:42;;;;;;;;;;;32.60;70.00;;;;;;4970848;28;20563;-73
2023/08/24 13:13:07;;;;;;;;;;;32.50;71.20;;;;;;4990188;28;19905;-73
2023/08/24 13:15:33;;;;;;;;;;;32.70;70.30;;;;;;4995448;28;19920;-72
2023/08/24 13:17:59;;;;;;;;;;;32.80;70.10;;;;;;4989612;28;19910;-73
2023/08/24 13:20:25;;;;;;;;;;;32.90;70.30;;;;;;4991101;28;20140;-72
2023/08/24 13:22:51;;;;;;;;;;;33.00;69.90;;;;;;4972213;28;19906;-72
2023/08/24 13:25:17;;;;;;;;;;;32.90;70.10;;;;;;4993762;28;19914;-71
2023/08/24 13:27:42;;;;;;;;;;;32.90;70.80;;;;;;4989130;28;19906;-71
2023/08/24 13:30:08;;;;;;;;;;;32.80;69.70;;;;;;4978065;28;20470;-70
2023/08/24 13:32:35;;;;;;;;;;;32.80;71.00;;;;;;5003584;28;20016;-71
2023/08/24 13:35:01;;;;;;;;;;;33.10;69.40;;;;;;4991440;28;19988;-71
2023/08/24 13:37:26;;;;;;;;;;;33.10;70.10;;;;;;4990497;28;20004;-71
2023/08/24 13:39:52;;;;;;;;;;;32.90;70.00;;;;;;4968533;28;19909;-71
2023/08/24 13:42:17;;;;;;;;;;;32.80;69.70;;;;;;4985191;28;19913;-71
2023/08/24 13:44:44;;;;;;;;;;;32.70;70.00;;;;;;4993260;28;19996;-71
2023/08/24 13:47:09;;;;;;;;;;;32.70;70.10;;;;;;4996998;28;19917;-71
2023/08/24 13:49:35;;;;;;;;;;;32.80;70.70;;;;;;4986946;28;19920;-71
2023/08/24 13:52:00;;;;;;;;;;;32.90;70.30;;;;;;4975417;28;20516;-70
2023/08/24 13:54:26;;;;;;;;;;;32.80;69.80;;;;;;4991998;28;20317;-71
2023/08/24 13:56:53;;;;;;;;;;;32.60;70.30;;;;;;4994569;28;20268;-70
2023/08/24 13:59:19;;;;;;;;;;;32.70;70.50;;;;;;4990305;28;19917;-70
2023/08/24 14:01:46;;;;;;;;;;;32.60;69.90;;;;;;4993595;28;19905;-71
2023/08/24 14:04:12;;;;;;;;;;;32.80;70.30;;;;;;4989305;28;19999;-70
2023/08/24 14:06:37;;;;;;;;;;;33.00;70.10;;;;;;4991558;28;20063;-71
2023/08/24 14:09:03;;;;;;;;;;;32.90;70.40;;;;;;4999183;28;19921;-71
2023/08/24 14:11:29;;;;;;;;;;;33.00;70.10;;;;;;4984187;28;19924;-71